createdAt,value
2023-04-01T00:01:01.425Z,9.21
2023-04-01T00:05:53.430Z,10.50
2023-04-01T00:10:46.305Z,9.39
2023-04-01T00:15:38.077Z,10.68
2023-04-01T00:20:30.844Z,10.70
2023-04-01T00:25:23.774Z,9.03
2023-04-01T00:30:16.525Z,9.21
2023-04-01T00:35:09.257Z,10.79
2023-04-01T00:40:01.097Z,10.78
2023-04-01T00:44:55.437Z,9.23
2023-04-01T00:49:51.866Z,9.41
2023-04-01T00:54:47.678Z,9.95
2023-04-01T00:59:48.933Z,9.26
2023-04-01T01:04:40.857Z,8.64
2023-04-01T01:09:44.195Z,8.83
2023-04-01T01:14:46.617Z,9.28
2023-04-01T01:20:26.570Z,10.83
2023-04-01T01:25:26.931Z,10.73
2023-04-01T01:30:35.520Z,9.61
2023-04-01T01:35:27.222Z,10.78
2023-04-01T01:40:20.425Z,9.34
2023-04-01T01:45:17.218Z,8.98
2023-04-01T01:50:12.187Z,9.80
2023-04-01T01:55:04.282Z,9.40
2023-04-01T02:00:14.765Z,10.46
2023-04-01T02:05:12.992Z,10.36
2023-04-01T02:10:05.546Z,9.48
2023-04-01T02:15:15.581Z,9.50
2023-04-01T02:20:18.795Z,10.11
2023-04-01T02:25:15.759Z,9.89
2023-04-01T02:30:08.533Z,8.10
2023-04-01T02:35:04.262Z,8.32
2023-04-01T02:40:01.739Z,8.48
2023-04-01T02:44:53.763Z,7.81
2023-04-01T02:49:45.804Z,9.52
2023-04-01T02:54:37.553Z,8.15
2023-04-01T02:59:29.491Z,7.84
2023-04-01T03:04:21.291Z,9.59
2023-04-01T03:09:13.123Z,7.07
2023-04-01T03:14:04.868Z,8.16
2023-04-01T10:06:10.358Z,12.81
2023-04-01T10:11:28.085Z,11.12
2023-04-01T10:16:44.599Z,12.66
2023-04-01T10:22:07.753Z,12.53
2023-04-01T10:27:19.328Z,11.40
2023-04-01T10:33:04.592Z,12.94
2023-04-01T10:38:28.903Z,12.93
2023-04-01T10:43:46.734Z,13.08
2023-04-01T10:48:45.543Z,13.14
2023-04-01T10:53:59.198Z,13.14
2023-04-01T10:59:29.378Z,12.18
2023-04-01T11:05:19.495Z,13.94
2023-04-01T11:10:53.773Z,12.05
2023-04-01T11:16:21.378Z,12.66
2023-04-01T11:21:16.538Z,14.49
2023-04-01T11:26:18.532Z,12.82
2023-04-01T11:31:53.531Z,14.70
2023-04-01T11:36:48.938Z,14.23
2023-04-01T11:42:14.138Z,14.14
2023-04-01T11:47:58.973Z,13.83
2023-04-01T11:56:06.115Z,14.12
2023-04-01T12:01:00.862Z,13.88
2023-04-01T12:06:17.506Z,14.12
2023-04-01T12:11:46.513Z,14.46
2023-04-01T12:17:08.941Z,14.99
2023-04-01T12:22:25.932Z,15.08
2023-04-01T12:27:45.055Z,15.35
2023-04-01T12:33:15.049Z,15.47
2023-04-01T12:38:51.859Z,12.90
2023-04-01T12:43:43.616Z,15.02
2023-04-01T12:49:00.383Z,15.06
2023-04-01T12:54:43.766Z,15.03
2023-04-01T13:00:10.703Z,14.06
2023-04-01T13:05:22.022Z,14.95
2023-04-01T13:10:32.901Z,14.73
2023-04-01T13:15:38.502Z,13.67
2023-04-01T13:20:36.442Z,14.32
2023-04-01T13:25:42.873Z,12.85
2023-04-01T13:30:45.834Z,11.88
2023-04-01T13:35:54.244Z,13.24
2023-04-01T13:41:41.334Z,13.93
2023-04-01T13:47:26.138Z,12.91
2023-04-01T13:52:42.649Z,13.05
2023-04-01T13:57:55.845Z,13.66
2023-04-01T14:03:06.066Z,14.12
2023-04-01T14:08:07.124Z,13.90
2023-04-01T14:13:23.823Z,13.59
2023-04-01T14:18:38.362Z,12.79
2023-04-01T14:24:15.062Z,12.97
2023-04-01T14:29:54.963Z,13.31
2023-04-01T14:35:31.973Z,13.34
2023-04-01T14:40:49.063Z,13.21
2023-04-01T14:46:06.279Z,12.95
2023-04-01T14:51:10.559Z,11.66
2023-04-01T14:56:07.166Z,13.10
2023-04-01T15:01:14.796Z,14.04
2023-04-01T15:06:15.931Z,13.90
2023-04-01T15:11:24.844Z,13.18
2023-04-01T15:16:25.061Z,12.06
2023-04-01T15:21:32.194Z,13.69
2023-04-01T15:26:47.642Z,11.89
2023-04-01T15:32:24.672Z,13.58
2023-04-01T15:37:47.450Z,13.48
2023-04-01T15:42:56.327Z,13.40
2023-04-01T15:48:00.073Z,13.32
2023-04-01T15:53:33.091Z,13.25
2023-04-01T15:58:41.821Z,12.79
2023-04-01T16:03:43.896Z,12.53
2023-04-01T16:09:03.905Z,12.97
2023-04-01T16:14:25.967Z,12.20
2023-04-01T16:19:51.846Z,12.82
2023-04-01T16:24:51.186Z,10.65
2023-04-01T16:29:51.989Z,12.24
2023-04-01T16:35:11.622Z,12.37
2023-04-01T16:40:35.879Z,11.49
2023-04-01T16:45:38.031Z,12.21
2023-04-01T16:50:47.791Z,11.48
2023-04-01T16:55:50.519Z,11.11
2023-04-01T17:00:50.819Z,11.99
2023-04-01T17:05:53.192Z,10.18
2023-04-01T17:10:52.829Z,11.96
2023-04-01T17:16:18.958Z,11.71
2023-04-01T17:21:28.881Z,11.85
2023-04-01T17:26:42.724Z,11.73
2023-04-01T17:31:51.158Z,11.55
2023-04-01T17:37:10.741Z,11.48
2023-04-01T17:42:23.115Z,11.33
2023-04-01T17:47:49.605Z,11.17
2023-04-01T17:53:10.982Z,10.80
2023-04-01T17:58:29.432Z,8.94
2023-04-01T18:03:59.319Z,10.85
2023-04-01T18:09:22.266Z,10.24
2023-04-01T18:14:23.320Z,10.54
2023-04-01T18:19:24.435Z,9.76
2023-04-01T18:24:19.195Z,10.39
2023-04-01T18:29:19.130Z,10.33
2023-04-01T18:34:40.693Z,8.39
2023-04-01T18:39:41.623Z,8.16
2023-04-01T18:44:48.788Z,10.36
2023-04-01T18:49:44.923Z,8.66
2023-04-01T18:55:09.903Z,9.31
2023-04-01T19:00:31.049Z,8.30
2023-04-01T19:05:35.116Z,10.15
2023-04-01T19:11:11.419Z,8.94
2023-04-01T19:16:25.636Z,10.16
2023-04-01T19:21:23.460Z,8.33
2023-04-01T19:26:40.151Z,8.47
2023-04-01T19:31:55.325Z,10.09
2023-04-01T19:36:55.668Z,7.45
2023-04-01T19:42:04.468Z,8.72
2023-04-01T19:47:16.219Z,9.94
2023-04-01T19:52:20.228Z,10.00
2023-04-01T19:57:23.495Z,7.66
2023-04-01T20:02:27.734Z,8.42
2023-04-01T20:07:27.793Z,8.33
2023-04-01T20:12:22.744Z,9.93
2023-04-01T20:17:17.858Z,9.90
2023-04-01T20:22:31.233Z,9.34
2023-04-01T20:27:32.764Z,8.23
2023-04-01T20:32:35.349Z,8.85
2023-04-01T20:37:43.138Z,9.89
2023-04-01T20:43:13.216Z,8.06
2023-04-01T20:48:33.844Z,6.79
2023-04-01T20:53:43.446Z,9.88
2023-04-01T20:58:52.771Z,9.84
2023-04-01T21:03:56.618Z,9.00
2023-04-01T21:09:07.760Z,9.76
2023-04-01T21:14:05.700Z,7.38
2023-04-01T21:19:14.103Z,9.31
2023-04-01T21:24:30.995Z,9.68
2023-04-01T21:29:54.690Z,8.54
2023-04-01T21:35:14.907Z,9.64
2023-04-01T21:40:18.891Z,9.59
2023-04-01T21:45:37.127Z,6.30
2023-04-01T21:50:46.765Z,7.80
2023-04-01T21:55:41.719Z,9.49
2023-04-01T22:00:49.680Z,8.77
2023-04-01T22:05:51.165Z,8.58
2023-04-01T22:11:08.097Z,7.89
2023-04-01T22:16:14.272Z,7.68
2023-04-01T22:21:22.262Z,9.46
2023-04-01T22:26:23.452Z,7.93
2023-04-01T22:31:24.354Z,7.21
2023-04-01T22:36:47.775Z,8.83
2023-04-01T22:41:57.190Z,8.70
2023-04-01T22:47:16.099Z,8.18
2023-04-01T22:52:28.329Z,8.59
2023-04-01T22:57:55.192Z,9.07
2023-04-01T23:03:03.302Z,8.22
2023-04-01T23:08:06.625Z,9.44
2023-04-01T23:13:03.256Z,9.77
2023-04-01T23:18:22.019Z,9.11
2023-04-01T23:23:17.366Z,9.93
2023-04-01T23:28:14.838Z,9.94
2023-04-01T23:33:20.966Z,9.62
2023-04-01T23:38:12.928Z,8.23
2023-04-01T23:43:15.019Z,9.19
2023-04-01T23:48:07.263Z,9.08
2023-04-01T23:53:17.748Z,8.87
2023-04-01T23:58:11.865Z,9.84
